createdAt,value
2023-12-18T00:00:14.823Z,1023.7
2023-12-18T00:05:20.918Z,1023.7
2023-12-18T00:10:27.008Z,1023.5
2023-12-18T00:15:33.087Z,1023.5
2023-12-18T00:20:39.184Z,1023.5
2023-12-18T00:25:45.298Z,1023.4
2023-12-18T00:30:51.365Z,1023.3
2023-12-18T00:35:57.459Z,1023.3
2023-12-18T00:41:02.562Z,1023.1
2023-12-18T00:46:08.657Z,1023
2023-12-18T00:51:14.742Z,1023
2023-12-18T00:56:20.839Z,1023
2023-12-18T01:01:26.928Z,1023
2023-12-18T01:06:33.028Z,1023
2023-12-18T01:11:39.115Z,1023
2023-12-18T01:16:45.206Z,1022.9
2023-12-18T01:21:51.295Z,1023
2023-12-18T01:26:57.381Z,1023
2023-12-18T01:32:03.472Z,1022.9
2023-12-18T01:37:09.562Z,1022.9
2023-12-18T01:42:15.641Z,1022.9
2023-12-18T01:47:20.759Z,1022.9
2023-12-18T01:52:26.872Z,1022.9
2023-12-18T01:57:33.060Z,1022.9
2023-12-18T02:02:39.038Z,1022.9
2023-12-18T02:07:45.127Z,1022.8
2023-12-18T02:12:51.222Z,1022.9
2023-12-18T02:17:57.307Z,1022.8
2023-12-18T02:23:03.402Z,1022.8
2023-12-18T02:28:09.493Z,1022.8
2023-12-18T02:33:15.573Z,1022.8
2023-12-18T02:38:21.669Z,1022.7
2023-12-18T02:43:27.762Z,1022.7
2023-12-18T02:48:33.866Z,1022.8
2023-12-18T02:53:38.954Z,1022.8
2023-12-18T02:58:45.046Z,1022.7
2023-12-18T03:03:51.130Z,1022.7
2023-12-18T03:08:57.222Z,1022.7
2023-12-18T03:14:03.310Z,1022.7
2023-12-18T03:19:09.401Z,1022.7
2023-12-18T03:24:15.498Z,1022.8
2023-12-18T03:29:21.596Z,1022.7
2023-12-18T03:34:27.680Z,1022.7
2023-12-18T03:39:33.776Z,1022.9
2023-12-18T03:44:39.874Z,1022.8
2023-12-18T03:49:45.971Z,1022.7
2023-12-18T03:54:52.040Z,1022.7
2023-12-18T03:59:57.158Z,1022.8
2023-12-18T04:05:03.241Z,1022.8
2023-12-18T04:10:09.334Z,1022.8
2023-12-18T04:15:15.426Z,1022.8
2023-12-18T04:20:21.513Z,1022.8
2023-12-18T04:25:27.599Z,1022.7
2023-12-18T04:30:33.698Z,1022.5
2023-12-18T04:35:39.806Z,1022.6
2023-12-18T04:40:45.878Z,1022.5
2023-12-18T04:45:51.979Z,1022.4
2023-12-18T04:50:58.067Z,1022.5
2023-12-18T04:56:04.158Z,1022.5
2023-12-18T05:01:10.255Z,1022.5
2023-12-18T05:06:15.345Z,1022.4
2023-12-18T05:11:21.453Z,1022.4
2023-12-18T05:16:27.541Z,1022.4
2023-12-18T05:21:33.665Z,1022.4
2023-12-18T05:26:39.726Z,1022.4
2023-12-18T05:31:45.811Z,1022.5
2023-12-18T05:36:51.907Z,1022.6
2023-12-18T05:41:57.984Z,1022.8
2023-12-18T05:47:04.079Z,1022.9
2023-12-18T05:52:10.218Z,1022.9
2023-12-18T05:57:16.270Z,1023
2023-12-18T06:02:22.359Z,1023
2023-12-18T06:07:28.462Z,1023
2023-12-18T06:12:33.637Z,1023
2023-12-18T06:17:39.653Z,1023
2023-12-18T06:22:45.800Z,1023
2023-12-18T06:27:51.842Z,1023.1
2023-12-18T06:32:57.924Z,1023.1
2023-12-18T06:38:04.022Z,1023.1
2023-12-18T06:43:10.113Z,1023.1
2023-12-18T06:48:16.212Z,1023
2023-12-18T06:53:22.294Z,1023.1
2023-12-18T06:58:28.382Z,1023.1
2023-12-18T07:03:34.485Z,1023.1
2023-12-18T07:08:40.566Z,1023.3
2023-12-18T07:13:46.663Z,1023.4
2023-12-18T07:18:51.767Z,1023.3
2023-12-18T07:23:57.870Z,1023.4
2023-12-18T07:29:03.960Z,1023.4
2023-12-18T07:34:10.038Z,1023.4
2023-12-18T07:39:16.143Z,1023.4
2023-12-18T07:44:22.228Z,1023.4
2023-12-18T07:49:28.305Z,1023.5
2023-12-18T07:54:34.481Z,1023.4
2023-12-18T07:59:40.496Z,1023.3
2023-12-18T08:04:46.591Z,1023.4
2023-12-18T08:09:52.669Z,1023.3
2023-12-18T08:14:58.790Z,1023.3
2023-12-18T08:20:04.875Z,1023.3
2023-12-18T08:25:09.969Z,1023.3
2023-12-18T08:30:16.058Z,1023.4
2023-12-18T08:35:22.158Z,1023.4
2023-12-18T08:40:28.245Z,1023.3
2023-12-18T08:45:34.329Z,1023.2
2023-12-18T08:50:40.423Z,1023.1
2023-12-18T08:55:46.518Z,1023.2
2023-12-18T09:00:52.618Z,1023
2023-12-18T09:05:58.693Z,1023.1
2023-12-18T09:11:04.789Z,1023.2
2023-12-18T09:16:11.036Z,1023.2
2023-12-18T09:21:16.971Z,1023.3
2023-12-18T09:26:23.070Z,1023.1
2023-12-18T09:31:28.495Z,1023.1
2023-12-18T09:36:34.387Z,1023
2023-12-18T09:41:40.337Z,1023.1
2023-12-18T09:46:46.548Z,1023.1
2023-12-18T09:51:52.825Z,1023.1
2023-12-18T09:56:58.622Z,1023.1
2023-12-18T10:02:04.713Z,1022.8
2023-12-18T10:07:10.803Z,1022.9
2023-12-18T10:12:17.017Z,1023
2023-12-18T10:17:23.030Z,1022.9
2023-12-18T10:22:29.110Z,1022.8
2023-12-18T10:27:35.196Z,1022.9
2023-12-18T10:32:41.257Z,1022.8
2023-12-18T10:37:46.758Z,1022.8
2023-12-18T10:42:52.705Z,1022.7
2023-12-18T10:47:58.682Z,1022.7
2023-12-18T10:53:04.635Z,1022.7
2023-12-18T10:58:10.935Z,1022.5
2023-12-18T11:03:16.945Z,1022.6
2023-12-18T11:08:22.270Z,1022.6
2023-12-18T11:13:28.202Z,1022.7
2023-12-18T11:18:34.201Z,1022.6
2023-12-18T11:23:40.309Z,1022.6
2023-12-18T11:28:46.551Z,1022.5
2023-12-18T11:33:52.708Z,1022.5
2023-12-18T11:38:58.475Z,1022.5
2023-12-18T11:44:04.578Z,1022.5
2023-12-18T11:49:10.720Z,1022.3
2023-12-18T11:54:17.014Z,1022.4
2023-12-18T11:59:22.911Z,1022.3
2023-12-18T12:04:28.930Z,1022.2
2023-12-18T12:09:35.042Z,1022.1
2023-12-18T12:14:40.339Z,1022.2
2023-12-18T12:19:46.221Z,1022.1
2023-12-18T12:24:52.456Z,1022.2
2023-12-18T12:29:58.590Z,1022.1
2023-12-18T12:35:04.709Z,1022.1
2023-12-18T12:40:10.659Z,1022.2
2023-12-18T12:45:16.945Z,1022.2
2023-12-18T12:50:23.008Z,1022.2
2023-12-18T12:55:28.997Z,1022.2
2023-12-18T13:00:35.194Z,1022.1
2023-12-18T13:05:41.151Z,1022.1
2023-12-18T13:10:47.120Z,1022.1
2023-12-18T13:15:53.437Z,1022
2023-12-18T13:20:58.339Z,1021.9
2023-12-18T13:26:04.643Z,1021.9
2023-12-18T13:31:10.506Z,1021.9
2023-12-18T13:36:16.639Z,1021.8
2023-12-18T13:41:22.918Z,1021.7
2023-12-18T13:46:29.022Z,1021.6
2023-12-18T13:51:35.017Z,1021.7
2023-12-18T13:56:41.318Z,1021.6
2023-12-18T14:01:47.252Z,1021.6
2023-12-18T14:06:53.335Z,1021.5
2023-12-18T14:11:59.478Z,1021.6
2023-12-18T14:17:05.680Z,1021.6
2023-12-18T14:22:11.649Z,1021.5
2023-12-18T14:27:16.798Z,1021.5
2023-12-18T14:32:22.908Z,1021.4
2023-12-18T14:37:28.874Z,1021.5
2023-12-18T14:42:34.881Z,1021.4
2023-12-18T14:47:41.167Z,1021.5
2023-12-18T14:52:47.220Z,1021.5
2023-12-18T14:57:53.436Z,1021.5
2023-12-18T15:02:59.617Z,1021.5
2023-12-18T15:08:05.587Z,1021.6
2023-12-18T15:13:11.490Z,1021.5
2023-12-18T15:18:17.433Z,1021.4
2023-12-18T15:23:23.825Z,1021.4
2023-12-18T15:28:29.787Z,1021.4
2023-12-18T15:33:34.732Z,1021.4
2023-12-18T15:38:41.060Z,1021.4
2023-12-18T15:43:47.065Z,1021.3
2023-12-18T15:48:53.431Z,1021.3
2023-12-18T15:53:59.393Z,1021.3
2023-12-18T15:59:05.542Z,1021.2
2023-12-18T16:04:11.557Z,1021
2023-12-18T16:09:17.731Z,1021
2023-12-18T16:14:23.764Z,1020.9
2023-12-18T16:19:29.593Z,1020.9
2023-12-18T16:24:35.631Z,1020.8
2023-12-18T16:29:41.964Z,1020.7
2023-12-18T16:34:47.952Z,1020.7
2023-12-18T16:39:53.234Z,1020.6
2023-12-18T16:44:59.350Z,1020.8
2023-12-18T16:50:05.494Z,1020.7
2023-12-18T16:55:11.280Z,1020.7
2023-12-18T17:00:17.290Z,1020.5
2023-12-18T17:05:23.616Z,1020.6
2023-12-18T17:10:29.614Z,1020.6
2023-12-18T17:15:35.873Z,1020.5
2023-12-18T17:20:42.014Z,1020.4
2023-12-18T17:25:48.065Z,1020.3
2023-12-18T17:30:54.049Z,1020.2
2023-12-18T17:36:00.216Z,1020.1
2023-12-18T17:41:06.212Z,1019.9
2023-12-18T17:46:11.428Z,1019.8
2023-12-18T17:51:17.570Z,1019.8
2023-12-18T17:56:23.680Z,1019.9
2023-12-18T18:01:29.779Z,1019.9
2023-12-18T18:06:35.714Z,1019.5
2023-12-18T18:11:41.917Z,1019.6
2023-12-18T18:16:47.902Z,1019.8
2023-12-18T18:21:53.888Z,1019.6
2023-12-18T18:27:00.088Z,1019.7
2023-12-18T18:32:06.123Z,1019.8
2023-12-18T18:37:12.204Z,1019.7
2023-12-18T18:42:18.153Z,1019.6
2023-12-18T18:47:24.597Z,1019.6
2023-12-18T18:52:29.632Z,1019.6
2023-12-18T18:57:35.706Z,1019.4
2023-12-18T19:02:41.505Z,1019.1
2023-12-18T19:07:48.045Z,1019.3
2023-12-18T19:12:53.979Z,1019.1
2023-12-18T19:18:00.082Z,1018.9
2023-12-18T19:23:06.168Z,1018.9
2023-12-18T19:28:12.002Z,1019
2023-12-18T19:33:18.088Z,1018.9
2023-12-18T19:38:24.399Z,1018.8
2023-12-18T19:43:30.619Z,1018.9
2023-12-18T19:48:36.317Z,1018.5
2023-12-18T19:53:42.425Z,1018.5
2023-12-18T19:58:47.669Z,1018.6
2023-12-18T20:03:53.827Z,1018.5
2023-12-18T20:08:59.852Z,1018.5
2023-12-18T20:14:05.878Z,1018.6
2023-12-18T20:19:11.945Z,1018.2
2023-12-18T20:24:18.028Z,1018.3
2023-12-18T20:29:24.101Z,1018.3
2023-12-18T20:34:30.322Z,1018.2
2023-12-18T20:39:36.282Z,1018.1
2023-12-18T20:44:42.405Z,1017.9
2023-12-18T20:49:48.667Z,1017.9
2023-12-18T20:54:54.555Z,1017.9
2023-12-18T21:00:00.693Z,1017.6
2023-12-18T21:05:05.776Z,1017.9
2023-12-18T21:10:11.837Z,1017.5
2023-12-18T21:15:17.918Z,1017.5
2023-12-18T21:20:24.013Z,1017.7
2023-12-18T21:25:30.090Z,1017.3
2023-12-18T21:30:36.186Z,1017.2
2023-12-18T21:35:42.274Z,1017.5
2023-12-18T21:40:48.363Z,1017.7
2023-12-18T21:45:54.463Z,1017.9
2023-12-18T21:51:00.558Z,1017.7
2023-12-18T21:56:06.664Z,1017.4
2023-12-18T22:01:12.752Z,1017.4
2023-12-18T22:06:18.820Z,1017.4
2023-12-18T22:11:23.938Z,1017.3
2023-12-18T22:16:30.022Z,1017.1
2023-12-18T22:21:36.113Z,1017
2023-12-18T22:26:42.212Z,1017.1
2023-12-18T22:31:48.613Z,1016.9
2023-12-18T22:36:54.658Z,1016.8
2023-12-18T22:42:00.736Z,1016.8
2023-12-18T22:47:06.915Z,1016.9
2023-12-18T22:52:12.921Z,1017
2023-12-18T22:57:19.094Z,1017.1
2023-12-18T23:02:25.100Z,1017
2023-12-18T23:07:30.944Z,1016.7
2023-12-18T23:12:37.210Z,1016.7
2023-12-18T23:17:42.514Z,1016.7
2023-12-18T23:22:48.571Z,1016.7
2023-12-18T23:27:54.464Z,1016.6
2023-12-18T23:33:00.630Z,1016.7
2023-12-18T23:38:06.497Z,1016.6
2023-12-18T23:43:12.845Z,1016.7
2023-12-18T23:48:18.862Z,1016.4
2023-12-18T23:53:25.055Z,1016.5
2023-12-18T23:58:30.899Z,1016.1
